Terminal Aerodrome Forecast
Issued by NWS

Home | Current Version | Previous Version | Graphics & Text | Print | Product List | Glossary On
Versions: 1 2 3 4 5 6 7 8 9 10 11 12 13 14 15 16 17 18
000
FTUS43 KGRB 271100
TAFATW
TAF
KATW 271135Z 2712/2812 25005KT P6SM SCT080 SCT120
      TEMPO 2712/2715 5SM BR BKN080
     FM271500 29011KT P6SM VCSH SCT035 BKN080
      TEMPO 2716/2720 3SM -SHRA BR SCT020 BKN030
     FM272200 36014G19KT P6SM SCT015 BKN040
     FM280000 35012KT P6SM BKN100
     FM280300 36011KT P6SM SKC=

USA.gov is the U.S. government's official web portal to all federal, state and local government web resources and services.